YPE weather

Peace River Airport
Peace River, Alberta, Canada

Public forecast

Using degrees Celsius for public forecast. Weather courtesy of forecast.io.

Current aviation weather report (METAR) for Peace River Airport

Retrieved 2020/01/25 01:00 UTC (36 minutes ago):

CYPE 250100Z 29002KT 15SM BKN070 M03/M04 A2961 RMK AC7 SLP063

Aviation forecast (TAF) for Peace River Airport

Retrieved 2020-01-25 01:42 UTC (0 seconds ago):

TAF CYPE 250038Z 2501/2513 VRB03KT P6SM BKN080 BECMG 2502/2504 22005KT FEW140 RMK NXT FCST BY 250700Z